Leaders Heights, Pennsylvania
Current Conditions -  °F | °C
As of 3:53 PM on Sunday 23 Nov 2014 (Local Time) from KTHV Reporting Station
Clear Clear  
Wind Chill: 53°   Ceiling: Unl
Heat Index: 53°   Visibility: 10mi
Dew Point: 25°   Wind: 8mph
Humidity: 34%   Direction: 140°SE
Pressure: 30.07"   Gusts: NA
Location:  39.9503°N, 76.7105°W
Report Text: KTHV 232053Z AUTO 14007KT 10SM CLR 12/M04 A3007 RMK AO2 SLP185 T01171039 56015
Loading
Personal Weather Stations






























Interactive Weather Map New forecast layout! Learn more

10-Day Weather Forecast

Advertisements
Track Severe Weather on mobile